createdAt,value
2023-11-16T00:00:18.017Z,64.17
2023-11-16T00:02:45.253Z,63.78
2023-11-16T00:05:14.885Z,63.55
2023-11-16T00:07:49.405Z,63.33
2023-11-16T00:10:17.882Z,63.40
2023-11-16T00:12:44.860Z,62.97
2023-11-16T00:15:13.296Z,63.86
2023-11-16T00:17:40.533Z,63.60
2023-11-16T00:20:08.850Z,63.31
2023-11-16T00:22:35.617Z,64.06
2023-11-16T00:25:07.435Z,63.13
2023-11-16T00:27:35.379Z,63.76
2023-11-16T00:30:05.020Z,63.17
2023-11-16T00:32:33.650Z,62.43
2023-11-16T00:35:01.280Z,61.96
2023-11-16T00:37:28.393Z,61.95
2023-11-16T00:39:59.352Z,62.53
2023-11-16T00:42:26.271Z,61.99
2023-11-16T00:44:53.757Z,61.42
2023-11-16T00:47:20.774Z,61.34
2023-11-16T00:49:47.967Z,60.94
2023-11-16T00:52:15.555Z,60.29
2023-11-16T00:54:42.542Z,59.86
2023-11-16T00:57:10.727Z,59.75
2023-11-16T00:59:38.188Z,59.31
2023-11-16T01:02:06.338Z,58.87
2023-11-16T01:04:35.329Z,58.29
2023-11-16T01:07:02.068Z,58.33
2023-11-16T01:09:37.011Z,58.56
2023-11-16T01:12:05.296Z,58.81
2023-11-16T01:14:32.186Z,58.83
2023-11-16T01:17:05.018Z,58.06
2023-11-16T01:19:33.646Z,57.98
2023-11-16T01:22:02.010Z,57.88
2023-11-16T01:24:36.348Z,57.08
2023-11-16T01:27:16.761Z,57.14
2023-11-16T01:29:45.438Z,57.16
2023-11-16T01:32:13.842Z,56.94
2023-11-16T01:34:43.698Z,58.55
2023-11-16T01:37:11.392Z,57.17
2023-11-16T01:39:42.218Z,57.57
2023-11-16T01:42:11.213Z,57.39
2023-11-16T01:44:40.252Z,57.90
2023-11-16T01:47:10.365Z,57.60
2023-11-16T01:49:39.350Z,57.32
2023-11-16T01:52:07.342Z,57.36
2023-11-16T01:54:38.308Z,57.00
2023-11-16T01:57:05.943Z,56.52
2023-11-16T01:59:35.710Z,56.55
2023-11-16T02:02:05.708Z,56.25
2023-11-16T02:04:36.261Z,56.26
2023-11-16T02:07:05.212Z,56.19
2023-11-16T02:09:32.159Z,56.01
2023-11-16T02:11:58.901Z,57.18
2023-11-16T02:14:25.592Z,58.30
2023-11-16T02:16:54.265Z,60.44
2023-11-16T02:19:32.072Z,61.50
2023-11-16T02:22:00.657Z,61.05
2023-11-16T02:24:28.890Z,60.22
2023-11-16T02:26:56.185Z,61.05
2023-11-16T02:29:23.131Z,61.39
2023-11-16T02:31:49.882Z,62.20
2023-11-16T02:34:16.787Z,63.36
2023-11-16T02:36:43.833Z,62.03
2023-11-16T02:39:14.789Z,62.18
2023-11-16T02:41:42.568Z,62.37
2023-11-16T02:44:10.343Z,62.32
2023-11-16T02:46:37.175Z,62.44
2023-11-16T02:49:04.127Z,63.28
2023-11-16T02:51:32.812Z,63.36
2023-11-16T02:54:03.753Z,63.86
2023-11-16T02:56:30.916Z,63.84
2023-11-16T02:58:57.665Z,64.27
2023-11-16T03:01:25.031Z,64.27
2023-11-16T03:03:52.022Z,64.60
2023-11-16T03:06:19.019Z,64.59
2023-11-16T03:08:46.510Z,65.04
2023-11-16T03:11:15.190Z,64.69
2023-11-16T03:13:42.610Z,64.92
2023-11-16T03:16:10.137Z,65.13
2023-11-16T03:18:37.065Z,65.14
2023-11-16T03:21:04.231Z,65.40
2023-11-16T03:23:30.948Z,65.35
2023-11-16T03:25:58.618Z,65.27
2023-11-16T03:28:25.490Z,65.27
2023-11-16T03:30:52.301Z,65.48
2023-11-16T03:33:19.404Z,65.53
2023-11-16T03:35:50.437Z,65.45
2023-11-16T03:38:20.446Z,65.54
2023-11-16T03:40:47.580Z,65.80
2023-11-16T03:43:15.216Z,66.14
2023-11-16T03:45:42.282Z,66.03
2023-11-16T03:48:10.617Z,66.08
2023-11-16T03:50:37.716Z,66.00
2023-11-16T03:53:04.686Z,66.17
2023-11-16T03:55:31.604Z,66.25
2023-11-16T03:57:58.353Z,66.61
2023-11-16T04:00:27.219Z,67.17
2023-11-16T04:02:59.528Z,67.02
2023-11-16T04:05:31.819Z,66.93
2023-11-16T04:07:58.606Z,66.92
2023-11-16T04:10:26.185Z,67.10
2023-11-16T04:12:53.019Z,67.18
2023-11-16T04:15:20.011Z,67.44
2023-11-16T04:17:47.423Z,67.33
2023-11-16T04:20:15.791Z,67.76
2023-11-16T04:22:42.612Z,67.82
2023-11-16T04:25:20.545Z,68.07
2023-11-16T04:27:50.565Z,68.02
2023-11-16T04:30:19.636Z,68.22
2023-11-16T04:32:47.554Z,68.16
2023-11-16T04:35:16.556Z,68.05
2023-11-16T04:37:43.947Z,68.05
2023-11-16T04:40:11.866Z,68.49
2023-11-16T04:42:40.777Z,68.63
2023-11-16T04:45:08.578Z,68.35
2023-11-16T04:47:38.883Z,68.44
2023-11-16T04:50:07.828Z,68.31
2023-11-16T04:52:35.392Z,68.20
2023-11-16T04:55:02.303Z,68.87
2023-11-16T04:57:29.785Z,68.68
2023-11-16T04:59:57.353Z,68.61
2023-11-16T05:02:24.153Z,68.43
2023-11-16T05:04:52.592Z,68.55
2023-11-16T05:07:19.291Z,68.39
2023-11-16T05:09:47.200Z,68.27
2023-11-16T05:12:14.105Z,68.30
2023-11-16T05:14:40.844Z,68.18
2023-11-16T05:17:07.714Z,68.05
2023-11-16T05:19:34.865Z,67.90
2023-11-16T05:22:03.217Z,68.03
2023-11-16T05:24:30.932Z,67.95
2023-11-16T05:27:03.150Z,68.18
2023-11-16T05:29:31.229Z,68.77
2023-11-16T05:31:58.777Z,68.27
2023-11-16T05:34:29.136Z,68.35
2023-11-16T05:36:56.538Z,68.29
2023-11-16T05:39:24.735Z,68.18
2023-11-16T05:41:51.626Z,68.23
2023-11-16T05:44:20.006Z,67.98
2023-11-16T05:46:46.859Z,68.04
2023-11-16T05:49:16.275Z,68.19
2023-11-16T05:51:43.488Z,68.05
2023-11-16T05:54:11.540Z,67.87
2023-11-16T05:56:44.804Z,67.78
2023-11-16T05:59:12.170Z,67.68
2023-11-16T06:01:39.344Z,67.74
2023-11-16T06:04:08.168Z,67.77
2023-11-16T06:06:35.544Z,67.78
2023-11-16T06:09:07.047Z,67.92
2023-11-16T06:11:34.041Z,67.91
2023-11-16T06:14:01.614Z,68.19
2023-11-16T06:16:28.500Z,67.98
2023-11-16T06:18:55.427Z,67.88
2023-11-16T06:21:22.588Z,67.99
2023-11-16T06:23:49.434Z,67.79
2023-11-16T06:26:16.213Z,67.69
2023-11-16T06:28:43.130Z,67.87
2023-11-16T06:31:09.917Z,67.88
2023-11-16T06:33:36.744Z,67.96
2023-11-16T06:36:04.531Z,68.28
2023-11-16T06:38:31.702Z,68.33
2023-11-16T06:41:00.413Z,68.38
2023-11-16T06:43:27.728Z,68.18
2023-11-16T06:45:59.970Z,68.34
2023-11-16T06:48:28.429Z,68.16
2023-11-16T06:50:55.985Z,67.82
2023-11-16T06:53:26.485Z,68.09
2023-11-16T06:55:53.913Z,68.47
2023-11-16T06:58:24.112Z,68.40
2023-11-16T07:00:52.953Z,68.30
2023-11-16T07:03:20.930Z,68.14
2023-11-16T07:05:47.819Z,68.06
2023-11-16T07:08:15.990Z,68.05
2023-11-16T07:10:43.215Z,68.08
2023-11-16T07:13:16.046Z,68.43
2023-11-16T07:15:46.674Z,68.25
2023-11-16T07:18:14.410Z,68.23
2023-11-16T07:20:42.150Z,68.27
2023-11-16T07:23:10.261Z,68.24
2023-11-16T07:25:36.972Z,67.90
2023-11-16T07:28:05.804Z,67.56
2023-11-16T07:30:34.838Z,67.47
2023-11-16T07:33:04.745Z,67.42
2023-11-16T07:35:35.383Z,67.30
2023-11-16T07:38:03.486Z,67.51
2023-11-16T07:40:30.638Z,67.93
2023-11-16T07:42:58.442Z,68.05
2023-11-16T07:45:26.233Z,68.28
2023-11-16T07:47:53.622Z,68.57
2023-11-16T07:50:20.791Z,68.58
2023-11-16T07:52:49.086Z,68.96
2023-11-16T07:55:23.761Z,69.40
2023-11-16T07:57:51.908Z,69.05
2023-11-16T08:00:32.977Z,69.11
2023-11-16T08:03:19.540Z,69.05
2023-11-16T08:05:48.540Z,68.71
2023-11-16T08:08:16.581Z,68.94
2023-11-16T08:10:45.296Z,68.40
2023-11-16T08:13:13.467Z,68.46
2023-11-16T08:15:42.504Z,68.04
2023-11-16T08:18:11.187Z,67.83
2023-11-16T08:20:39.266Z,67.56
2023-11-16T08:23:07.074Z,67.12
2023-11-16T08:25:35.568Z,67.58
2023-11-16T08:28:03.056Z,68.02
2023-11-16T08:30:29.985Z,68.13
2023-11-16T08:32:56.772Z,68.20
2023-11-16T08:35:24.806Z,68.20
2023-11-16T08:37:55.389Z,68.69
2023-11-16T08:40:25.493Z,69.87
2023-11-16T08:42:53.311Z,70.80
2023-11-16T08:45:26.058Z,70.53
2023-11-16T08:47:54.448Z,71.05
2023-11-16T08:50:22.412Z,69.43
2023-11-16T08:52:50.436Z,67.65
2023-11-16T08:55:20.384Z,67.25
2023-11-16T08:57:49.009Z,68.03
2023-11-16T09:00:29.240Z,67.59
2023-11-16T09:03:01.133Z,67.09
2023-11-16T09:05:33.216Z,65.83
2023-11-16T09:08:02.601Z,66.37
2023-11-16T09:10:31.791Z,66.58
2023-11-16T09:13:00.374Z,66.79
2023-11-16T09:15:27.803Z,67.01
2023-11-16T09:17:56.248Z,65.79
2023-11-16T09:20:26.488Z,65.50
2023-11-16T09:22:56.544Z,64.72
2023-11-16T09:25:25.465Z,65.43
2023-11-16T09:27:56.158Z,65.67
2023-11-16T09:30:24.984Z,65.97
2023-11-16T09:32:54.139Z,64.84
2023-11-16T09:35:24.469Z,65.06
2023-11-16T09:37:53.511Z,65.39
2023-11-16T09:40:32.066Z,65.92
2023-11-16T09:42:59.965Z,63.85
2023-11-16T09:45:30.806Z,64.01
2023-11-16T09:48:01.145Z,64.62
2023-11-16T09:50:29.305Z,64.85
2023-11-16T09:52:58.046Z,65.03
2023-11-16T09:55:27.701Z,64.48
2023-11-16T09:57:57.090Z,64.25
2023-11-16T10:00:25.002Z,64.80
2023-11-16T10:02:57.421Z,64.86
2023-11-16T10:05:28.128Z,64.84
2023-11-16T10:07:58.099Z,64.61
2023-11-16T10:10:30.947Z,63.86
2023-11-16T10:12:58.065Z,62.86
2023-11-16T10:15:26.204Z,62.42
2023-11-16T10:17:53.686Z,63.11
2023-11-16T10:20:22.109Z,63.88
2023-11-16T10:22:49.813Z,62.98
2023-11-16T10:25:17.289Z,63.14
2023-11-16T10:27:45.304Z,63.45
2023-11-16T10:30:16.698Z,63.45
2023-11-16T10:32:48.738Z,64.71
2023-11-16T10:35:19.389Z,64.58
2023-11-16T10:37:46.561Z,63.97
2023-11-16T10:40:14.060Z,64.27
2023-11-16T10:42:42.875Z,64.19
2023-11-16T10:45:10.885Z,62.36
2023-11-16T10:47:38.550Z,62.47
2023-11-16T10:50:06.016Z,62.71
2023-11-16T10:52:34.474Z,62.47
2023-11-16T10:55:08.843Z,61.30
2023-11-16T10:57:38.110Z,62.87
2023-11-16T11:00:06.062Z,62.23
2023-11-16T11:02:35.322Z,61.60
2023-11-16T11:05:11.172Z,63.31
2023-11-16T11:07:54.529Z,62.02
2023-11-16T11:10:34.689Z,63.68
2023-11-16T11:13:04.401Z,63.05
2023-11-16T11:15:32.844Z,61.48
2023-11-16T11:18:03.361Z,60.48
2023-11-16T11:20:33.924Z,61.07
2023-11-16T11:23:08.558Z,61.39
2023-11-16T11:25:40.110Z,62.86
2023-11-16T11:28:08.172Z,62.83
2023-11-16T11:30:38.846Z,61.22
2023-11-16T11:33:15.650Z,60.13
2023-11-16T11:35:54.742Z,59.44
2023-11-16T11:38:28.817Z,62.47
2023-11-16T11:41:23.502Z,61.78
2023-11-16T11:43:50.262Z,61.36
2023-11-16T11:46:19.781Z,60.04
2023-11-16T11:48:48.111Z,61.58
2023-11-16T11:51:17.475Z,62.77
2023-11-16T11:53:49.477Z,61.45
2023-11-16T11:56:17.082Z,58.92
2023-11-16T11:58:44.322Z,57.75
2023-11-16T12:01:12.778Z,59.31
2023-11-16T12:03:51.440Z,59.62
2023-11-16T12:06:19.091Z,60.70
2023-11-16T12:08:47.794Z,60.06
2023-11-16T12:11:19.603Z,58.63
2023-11-16T12:13:46.906Z,59.67
2023-11-16T12:16:14.856Z,59.63
2023-11-16T12:18:49.360Z,61.14
2023-11-16T12:21:16.562Z,58.92
2023-11-16T12:23:51.158Z,60.22
2023-11-16T12:26:29.626Z,58.56
2023-11-16T12:28:57.051Z,58.46
2023-11-16T12:31:28.132Z,60.35
2023-11-16T12:33:58.236Z,57.65
2023-11-16T12:36:27.290Z,57.05
2023-11-16T12:38:54.589Z,56.56
2023-11-16T12:41:24.550Z,59.24
2023-11-16T12:43:52.261Z,58.25
2023-11-16T12:46:20.794Z,57.13
2023-11-16T12:48:47.948Z,54.58
2023-11-16T12:51:20.981Z,54.23
2023-11-16T12:53:48.576Z,53.44
2023-11-16T12:56:16.816Z,54.05
2023-11-16T12:58:44.515Z,54.33
2023-11-16T13:01:14.855Z,53.35
2023-11-16T13:03:49.687Z,52.68
2023-11-16T13:06:20.544Z,53.60
2023-11-16T13:08:48.516Z,56.37
2023-11-16T13:11:16.757Z,57.28
2023-11-16T13:13:43.985Z,58.20
2023-11-16T13:16:13.955Z,58.21
2023-11-16T13:18:41.024Z,57.87
2023-11-16T13:21:11.547Z,59.20
2023-11-16T13:23:48.631Z,58.52
2023-11-16T13:26:16.168Z,57.13
2023-11-16T13:28:43.303Z,58.14
2023-11-16T13:31:10.188Z,58.49
2023-11-16T13:33:36.969Z,57.98
2023-11-16T13:36:03.999Z,58.29
2023-11-16T13:38:34.105Z,58.13
2023-11-16T13:41:01.409Z,58.17
2023-11-16T13:43:28.138Z,58.32
2023-11-16T13:45:55.239Z,57.32
2023-11-16T13:48:22.151Z,57.32
2023-11-16T13:50:53.211Z,56.85
2023-11-16T13:53:20.528Z,56.86
2023-11-16T13:55:48.397Z,58.10
2023-11-16T13:58:15.425Z,58.37
2023-11-16T14:00:42.836Z,58.52
2023-11-16T14:03:13.704Z,59.30
2023-11-16T14:05:41.889Z,59.20
2023-11-16T14:08:08.716Z,58.73
2023-11-16T14:10:35.655Z,57.74
2023-11-16T14:13:02.630Z,58.33
2023-11-16T14:15:29.663Z,58.31
2023-11-16T14:17:56.519Z,58.60
2023-11-16T14:20:23.479Z,58.49
2023-11-16T14:22:51.436Z,58.90
2023-11-16T14:25:24.071Z,59.25
2023-11-16T14:27:54.394Z,59.56
2023-11-16T14:30:22.118Z,59.25
2023-11-16T14:32:48.922Z,59.19
2023-11-16T14:35:20.207Z,59.39
2023-11-16T14:37:49.251Z,59.71
2023-11-16T14:40:16.202Z,59.79
2023-11-16T14:42:43.256Z,59.94
2023-11-16T14:45:10.487Z,60.36
2023-11-16T14:47:40.292Z,60.74
2023-11-16T14:50:14.540Z,60.95
2023-11-16T14:52:43.406Z,61.17
2023-11-16T14:55:11.192Z,61.55
2023-11-16T14:57:41.456Z,61.78
2023-11-16T15:00:09.993Z,61.91
2023-11-16T15:02:37.668Z,62.37
2023-11-16T15:05:10.087Z,62.52
2023-11-16T15:07:40.244Z,62.75
2023-11-16T15:10:12.358Z,62.84
2023-11-16T15:12:41.160Z,62.87
2023-11-16T15:15:11.526Z,63.13
2023-11-16T15:17:41.630Z,63.29
2023-11-16T15:20:16.407Z,63.77
2023-11-16T15:22:54.294Z,64.09
2023-11-16T15:25:21.589Z,64.37
2023-11-16T15:27:48.935Z,64.69
2023-11-16T15:30:16.821Z,65.00
2023-11-16T15:32:46.795Z,64.73
2023-11-16T15:35:13.828Z,64.97
2023-11-16T15:37:40.752Z,64.76
2023-11-16T15:40:09.661Z,64.85
2023-11-16T15:42:36.760Z,64.94
2023-11-16T15:45:04.105Z,65.18
2023-11-16T15:47:32.710Z,65.55
2023-11-16T15:50:00.767Z,65.51
2023-11-16T15:52:27.442Z,65.67
2023-11-16T15:54:54.633Z,65.77
2023-11-16T15:57:26.699Z,65.76
2023-11-16T15:59:59.844Z,65.71
2023-11-16T16:02:31.506Z,66.01
2023-11-16T16:05:01.123Z,65.78
2023-11-16T16:07:29.028Z,65.92
2023-11-16T16:09:57.293Z,65.95
2023-11-16T16:12:24.937Z,65.93
2023-11-16T16:14:51.709Z,65.95
2023-11-16T16:17:18.506Z,66.10
2023-11-16T16:19:45.272Z,66.23
2023-11-16T16:22:16.174Z,66.77
2023-11-16T16:24:43.950Z,66.88
2023-11-16T16:27:11.834Z,66.89
2023-11-16T16:29:39.244Z,66.48
2023-11-16T16:32:10.016Z,66.40
2023-11-16T16:34:37.717Z,66.29
2023-11-16T16:37:07.842Z,66.17
2023-11-16T16:39:38.681Z,66.01
2023-11-16T16:42:06.415Z,66.23
2023-11-16T16:44:33.240Z,66.27
2023-11-16T16:47:00.052Z,66.93
2023-11-16T16:49:29.760Z,67.54
2023-11-16T16:51:59.368Z,67.08
2023-11-16T16:54:26.475Z,67.70
2023-11-16T16:56:53.570Z,67.44
2023-11-16T16:59:20.677Z,68.09
2023-11-16T17:01:48.181Z,68.47
2023-11-16T17:04:15.077Z,67.86
2023-11-16T17:06:41.924Z,67.81
2023-11-16T17:09:09.599Z,68.51
2023-11-16T17:11:36.306Z,68.27
2023-11-16T17:14:03.495Z,68.03
2023-11-16T17:16:31.194Z,67.75
2023-11-16T17:18:58.161Z,67.51
2023-11-16T17:21:25.533Z,67.26
2023-11-16T17:23:52.720Z,68.19
2023-11-16T17:26:21.062Z,68.34
2023-11-16T17:28:49.814Z,68.83
2023-11-16T17:31:18.783Z,68.54
2023-11-16T17:33:46.453Z,68.08
2023-11-16T17:36:13.433Z,67.75
2023-11-16T17:38:40.198Z,68.07
2023-11-16T17:41:08.231Z,68.59
2023-11-16T17:43:38.967Z,69.31
2023-11-16T17:46:07.571Z,69.18
2023-11-16T17:48:34.948Z,68.59
2023-11-16T17:51:03.840Z,68.06
2023-11-16T17:53:33.365Z,67.58
2023-11-16T17:56:01.529Z,67.66
2023-11-16T17:58:28.388Z,67.94
2023-11-16T18:00:55.236Z,68.09
2023-11-16T18:03:22.163Z,68.38
2023-11-16T18:05:49.108Z,67.73
2023-11-16T18:08:15.976Z,67.47
2023-11-16T18:10:45.528Z,67.35
2023-11-16T18:13:20.699Z,66.97
2023-11-16T18:15:49.490Z,66.91
2023-11-16T18:18:18.016Z,66.86
2023-11-16T18:20:45.229Z,66.78
2023-11-16T18:23:12.127Z,66.73
2023-11-16T18:25:41.577Z,66.80
2023-11-16T18:28:14.181Z,66.81
2023-11-16T18:30:46.611Z,67.32
2023-11-16T18:33:15.476Z,67.55
2023-11-16T18:35:42.814Z,67.16
2023-11-16T18:38:12.726Z,68.09
2023-11-16T18:40:41.261Z,67.54
2023-11-16T18:43:11.733Z,67.43
2023-11-16T18:45:39.266Z,67.28
2023-11-16T18:48:10.695Z,67.45
2023-11-16T18:50:39.090Z,67.39
2023-11-16T18:53:05.845Z,67.31
2023-11-16T18:55:33.064Z,67.57
2023-11-16T18:58:00.351Z,67.49
2023-11-16T19:00:27.647Z,67.51
2023-11-16T19:03:03.697Z,67.65
2023-11-16T19:05:30.522Z,67.78
2023-11-16T19:07:57.625Z,67.55
2023-11-16T19:10:24.446Z,67.76
2023-11-16T19:12:51.325Z,67.59
2023-11-16T19:15:18.059Z,67.31
2023-11-16T19:17:45.830Z,67.01
2023-11-16T19:20:19.257Z,67.43
2023-11-16T19:22:45.997Z,67.20
2023-11-16T19:25:15.950Z,67.20
2023-11-16T19:27:43.599Z,67.02
2023-11-16T19:30:15.473Z,67.04
2023-11-16T19:32:43.627Z,67.17
2023-11-16T19:35:10.386Z,67.01
2023-11-16T19:37:37.150Z,67.31
2023-11-16T19:40:04.430Z,67.43
2023-11-16T19:42:31.152Z,67.30
2023-11-16T19:44:57.966Z,67.34
2023-11-16T19:47:29.951Z,67.11
2023-11-16T19:50:11.284Z,67.49
2023-11-16T19:52:39.667Z,67.56
2023-11-16T19:55:08.233Z,67.45
2023-11-16T19:57:35.529Z,67.40
2023-11-16T20:00:04.786Z,67.33
2023-11-16T20:02:32.321Z,67.24
2023-11-16T20:05:00.673Z,67.06
2023-11-16T20:07:30.219Z,67.15
2023-11-16T20:09:58.196Z,67.27
2023-11-16T20:12:26.331Z,67.44
2023-11-16T20:14:57.214Z,67.47
2023-11-16T20:17:27.730Z,67.91
2023-11-16T20:19:57.010Z,67.90
2023-11-16T20:22:24.328Z,67.90
2023-11-16T20:24:53.939Z,67.85
2023-11-16T20:27:20.896Z,67.54
2023-11-16T20:29:47.690Z,67.43
2023-11-16T20:32:14.744Z,67.59
2023-11-16T20:34:42.011Z,67.52
2023-11-16T20:37:09.030Z,67.16
2023-11-16T20:39:35.840Z,66.36
2023-11-16T20:42:05.376Z,66.45
2023-11-16T20:44:33.664Z,66.25
2023-11-16T20:47:00.704Z,66.11
2023-11-16T20:49:28.187Z,66.37
2023-11-16T20:51:56.395Z,66.50
2023-11-16T20:54:23.566Z,66.76
2023-11-16T20:56:50.455Z,66.95
2023-11-16T20:59:18.791Z,67.01
2023-11-16T21:01:46.200Z,67.29
2023-11-16T21:04:13.238Z,67.01
2023-11-16T21:06:40.202Z,66.85
2023-11-16T21:09:10.991Z,66.83
2023-11-16T21:11:38.414Z,66.86
2023-11-16T21:14:08.278Z,66.75
2023-11-16T21:16:35.337Z,66.91
2023-11-16T21:19:02.186Z,66.68
2023-11-16T21:21:29.092Z,66.75
2023-11-16T21:23:56.001Z,67.04
2023-11-16T21:26:22.801Z,66.64
2023-11-16T21:28:49.694Z,66.80
2023-11-16T21:31:16.544Z,66.75
2023-11-16T21:33:43.421Z,67.04
2023-11-16T21:36:11.442Z,66.91
2023-11-16T21:38:38.575Z,66.91
2023-11-16T21:41:07.495Z,67.18
2023-11-16T21:43:34.620Z,67.04
2023-11-16T21:46:01.727Z,67.08
2023-11-16T21:48:29.459Z,67.08
2023-11-16T21:50:56.279Z,66.64
2023-11-16T21:53:23.792Z,66.63
2023-11-16T21:55:51.842Z,66.89
2023-11-16T21:58:18.725Z,66.55
2023-11-16T22:00:45.586Z,66.84
2023-11-16T22:03:12.458Z,66.65
2023-11-16T22:05:39.241Z,67.01
2023-11-16T22:08:06.417Z,67.08
2023-11-16T22:10:33.197Z,67.22
2023-11-16T22:13:00.055Z,67.04
2023-11-16T22:15:27.659Z,67.13
2023-11-16T22:17:54.554Z,67.40
2023-11-16T22:20:21.399Z,67.08
2023-11-16T22:22:50.080Z,67.07
2023-11-16T22:25:18.179Z,66.72
2023-11-16T22:27:47.421Z,67.03
2023-11-16T22:30:19.418Z,67.43
2023-11-16T22:32:47.050Z,66.75
2023-11-16T22:35:14.953Z,67.17
2023-11-16T22:37:43.295Z,67.48
2023-11-16T22:40:11.139Z,67.11
2023-11-16T22:42:39.382Z,67.46
2023-11-16T22:45:10.089Z,67.40
2023-11-16T22:47:45.190Z,67.49
2023-11-16T22:50:12.666Z,67.31
2023-11-16T22:52:40.099Z,67.43
2023-11-16T22:55:10.291Z,67.60
2023-11-16T22:57:38.687Z,67.61
2023-11-16T23:00:11.153Z,67.40
2023-11-16T23:02:40.156Z,67.55
2023-11-16T23:05:09.008Z,67.57
2023-11-16T23:07:38.150Z,67.26
2023-11-16T23:10:06.035Z,67.49
2023-11-16T23:12:32.944Z,67.21
2023-11-16T23:14:59.756Z,67.48
2023-11-16T23:17:27.784Z,67.48
2023-11-16T23:19:54.796Z,67.69
2023-11-16T23:22:22.376Z,67.58
2023-11-16T23:24:50.821Z,67.87
2023-11-16T23:27:18.543Z,68.07
2023-11-16T23:29:45.307Z,68.07
2023-11-16T23:32:12.874Z,68.09
2023-11-16T23:34:41.797Z,68.10
2023-11-16T23:37:12.021Z,67.96
2023-11-16T23:39:38.739Z,67.87
2023-11-16T23:42:06.020Z,67.83
2023-11-16T23:44:32.809Z,67.96
2023-11-16T23:47:01.335Z,68.23
2023-11-16T23:49:28.379Z,68.61
2023-11-16T23:51:55.190Z,68.42
2023-11-16T23:54:22.115Z,68.45
2023-11-16T23:56:48.989Z,68.37
2023-11-16T23:59:16.296Z,68.38
